Погода Самовольцына 2 недели

Витебская область, Белоруссия

22 мая-04 июня
  • 22мая
    Сегодня
    +12°
    +24°
    Небольшая облачность, возможен дождь с грозой
    ВремяПогодаТемператураВлажностьДавлениеВетер, м/сВероятность осадков
    00:00Облачно с прояснениями+14°C86 %752 мм2.7 м/с2 %
    03:00Практически безоблачно+13°C86 %753 мм3.7 м/с2 %
    06:00Практически безоблачно+11°C71 %753 мм4.3 м/с2 %
    09:00Ясно и безоблачно+16°C61 %753 мм4.3 м/с2 %
    12:00Ясно и безоблачно+21°C58 %753 мм4.7 м/с2 %
    15:00Небольшая облачность, возможен дождь с грозой+24°C56 %752 мм4.7 м/с15 %
    18:00Облачно с прояснениями+21°C76 %753 мм3.9 м/с39 %
    21:00Небольшая облачность+18°C87 %753 мм3.4 м/с12 %
  • 23мая
    Четверг
    +12°
    +24°
    Ясно и безоблачно
    ВремяПогодаТемператураВлажностьДавлениеВетер, м/сВероятность осадков
    00:00Практически безоблачно+15°C93 %753 мм2.8 м/с2 %
    03:00Ясно и безоблачно+13°C94 %754 мм3.4 м/с2 %
    06:00Ясно и безоблачно+13°C93 %755 мм4.5 м/с2 %
    09:00Ясно и безоблачно+18°C75 %755 мм4.5 м/с2 %
    12:00Ясно и безоблачно+22°C64 %756 мм5.0 м/с9 %
    15:00Ясно и безоблачно+23°C54 %756 мм5.9 м/с21 %
    18:00Практически безоблачно+23°C56 %755 мм5.2 м/с35 %
    21:00Ясно и безоблачно+19°C63 %756 мм3.8 м/с8 %
  • 24мая
    Пятница
    +12°
    +24°
    Ясно и безоблачно
    ВремяПогодаТемператураВлажностьДавлениеВетер, м/сВероятность осадков
    00:00Ясно и безоблачно+16°C65 %757 мм4.3 м/с2 %
    03:00Ясно и безоблачно+14°C72 %758 мм4.1 м/с2 %
    06:00Ясно и безоблачно+13°C78 %758 мм4.1 м/с2 %
    09:00Ясно и безоблачно+18°C64 %759 мм4.7 м/с2 %
    12:00Ясно и безоблачно+22°C57 %759 мм4.5 м/с2 %
    15:00Ясно и безоблачно+23°C53 %758 мм5.0 м/с8 %
    18:00Практически безоблачно+23°C53 %758 мм4.5 м/с10 %
    21:00Ясно и безоблачно+19°C69 %758 мм2.6 м/с3 %
  • 25мая
    Суббота
    +13°
    +23°
    Практически безоблачно
    ВремяПогодаТемператураВлажностьДавлениеВетер, м/сВероятность осадков
    00:00Ясно и безоблачно+16°C70 %758 мм4.0 м/с2 %
    03:00Ясно и безоблачно+14°C74 %758 мм3.0 м/с2 %
    06:00Ясно и безоблачно+13°C81 %758 мм2.9 м/с2 %
    09:00Ясно и безоблачно+18°C69 %758 мм2.9 м/с3 %
    12:00Ясно и безоблачно+22°C58 %758 мм3.0 м/с2 %
    15:00Практически безоблачно+23°C51 %757 мм3.3 м/с18 %
    18:00Небольшая облачность, возможен дождь с грозой+22°C64 %756 мм1.7 м/с34 %
    21:00Ясно и безоблачно+19°C77 %756 мм0.8 м/с16 %
  • 26мая
    Воскресенье
    +12°
    +25°
    Ясно и безоблачно
    ВремяПогодаТемператураВлажностьДавлениеВетер, м/сВероятность осадков
    00:00Ясно и безоблачно+16°C91 %756 мм2.2 м/с6 %
    03:00Ясно и безоблачно+14°C92 %756 мм2.4 м/с9 %
    06:00Ясно и безоблачно+14°C91 %756 мм1.6 м/с8 %
    09:00Ясно и безоблачно+19°C69 %757 мм1.0 м/с8 %
    12:00Ясно и безоблачно+23°C45 %757 мм1.5 м/с14 %
    15:00Ясно и безоблачно+24°C42 %757 мм0.9 м/с22 %
    18:00Ясно и безоблачно+24°C42 %756 мм0.4 м/с21 %
    21:00Ясно и безоблачно+20°C69 %756 мм2.0 м/с12 %
Мы используем cookies
Соглашаюсь